sensor_id;sensor_type;location;lat;lon;timestamp;pressure;altitude;pressure_sealevel;temperature;humidity
72118;BME280;59992;47.490;8.736;2023-11-18T00:02:21;97525.39;;;4.07;99.30
72118;BME280;59992;47.490;8.736;2023-11-18T00:05:10;97525.42;;;4.00;98.91
72118;BME280;59992;47.490;8.736;2023-11-18T00:07:58;97523.63;;;3.93;99.33
72118;BME280;59992;47.490;8.736;2023-11-18T00:10:46;97520.69;;;3.88;99.82
72118;BME280;59992;47.490;8.736;2023-11-18T00:13:35;97522.44;;;3.82;99.95
72118;BME280;59992;47.490;8.736;2023-11-18T00:16:26;97518.61;;;3.76;100.00
72118;BME280;59992;47.490;8.736;2023-11-18T00:19:14;97523.32;;;3.72;100.00
72118;BME280;59992;47.490;8.736;2023-11-18T00:22:03;97523.16;;;3.67;100.00
72118;BME280;59992;47.490;8.736;2023-11-18T00:24:51;97517.95;;;3.62;100.00
72118;BME280;59992;47.490;8.736;2023-11-18T00:27:40;97509.17;;;3.55;100.00
72118;BME280;59992;47.490;8.736;2023-11-18T00:30:28;97512.91;;;3.51;100.00
72118;BME280;59992;47.490;8.736;2023-11-18T00:33:17;97512.09;;;3.50;100.00
72118;BME280;59992;47.490;8.736;2023-11-18T00:36:07;97511.34;;;3.51;100.00
72118;BME280;59992;47.490;8.736;2023-11-18T00:38:55;97514.36;;;3.52;100.00
72118;BME280;59992;47.490;8.736;2023-11-18T00:41:44;97511.73;;;3.53;100.00
72118;BME280;59992;47.490;8.736;2023-11-18T00:44:32;97512.44;;;3.56;100.00
72118;BME280;59992;47.490;8.736;2023-11-18T00:47:20;97512.30;;;3.59;100.00
72118;BME280;59992;47.490;8.736;2023-11-18T00:50:10;97514.36;;;3.68;100.00
72118;BME280;59992;47.490;8.736;2023-11-18T00:52:59;97519.59;;;3.75;100.00
72118;BME280;59992;47.490;8.736;2023-11-18T00:55:47;97525.64;;;3.82;100.00
72118;BME280;59992;47.490;8.736;2023-11-18T00:58:36;97532.42;;;3.89;100.00
72118;BME280;59992;47.490;8.736;2023-11-18T01:01:27;97539.64;;;3.98;100.00
72118;BME280;59992;47.490;8.736;2023-11-18T01:04:16;97538.61;;;4.04;100.00
72118;BME280;59992;47.490;8.736;2023-11-18T01:07:04;97539.66;;;4.09;100.00
72118;BME280;59992;47.490;8.736;2023-11-18T01:09:52;97537.87;;;4.15;100.00
72118;BME280;59992;47.490;8.736;2023-11-18T01:12:41;97542.03;;;4.21;100.00
72118;BME280;59992;47.490;8.736;2023-11-18T01:15:31;97545.58;;;4.27;100.00
72118;BME280;59992;47.490;8.736;2023-11-18T01:18:20;97544.13;;;4.34;100.00
72118;BME280;59992;47.490;8.736;2023-11-18T01:21:08;97544.59;;;4.38;100.00
72118;BME280;59992;47.490;8.736;2023-11-18T01:23:58;97541.34;;;4.43;100.00
72118;BME280;59992;47.490;8.736;2023-11-18T01:26:46;97536.29;;;4.46;100.00
72118;BME280;59992;47.490;8.736;2023-11-18T01:29:34;97534.90;;;4.47;100.00
72118;BME280;59992;47.490;8.736;2023-11-18T01:32:22;97536.71;;;4.52;100.00
72118;BME280;59992;47.490;8.736;2023-11-18T01:35:11;97545.33;;;4.63;100.00
72118;BME280;59992;47.490;8.736;2023-11-18T01:38:00;97539.23;;;4.69;100.00
72118;BME280;59992;47.490;8.736;2023-11-18T01:40:48;97541.83;;;4.73;100.00
72118;BME280;59992;47.490;8.736;2023-11-18T01:43:36;97541.40;;;4.77;100.00
72118;BME280;59992;47.490;8.736;2023-11-18T01:46:25;97543.91;;;4.80;100.00
72118;BME280;59992;47.490;8.736;2023-11-18T01:49:14;97548.96;;;4.82;100.00
72118;BME280;59992;47.490;8.736;2023-11-18T01:52:02;97549.80;;;4.81;100.00
72118;BME280;59992;47.490;8.736;2023-11-18T01:54:51;97546.33;;;4.73;100.00
72118;BME280;59992;47.490;8.736;2023-11-18T01:57:42;97560.23;;;4.69;100.00
72118;BME280;59992;47.490;8.736;2023-11-18T02:00:32;97553.52;;;4.64;99.93
72118;BME280;59992;47.490;8.736;2023-11-18T02:03:21;97547.08;;;4.57;99.82
72118;BME280;59992;47.490;8.736;2023-11-18T02:06:10;97546.33;;;4.50;100.00
72118;BME280;59992;47.490;8.736;2023-11-18T02:08:59;97549.92;;;4.44;100.00
72118;BME280;59992;47.490;8.736;2023-11-18T02:11:53;97538.00;;;4.33;99.31
72118;BME280;59992;47.490;8.736;2023-11-18T02:14:43;97545.42;;;4.24;99.57
72118;BME280;59992;47.490;8.736;2023-11-18T02:17:34;97543.51;;;4.15;100.00
72118;BME280;59992;47.490;8.736;2023-11-18T02:20:22;97533.30;;;4.07;99.99
72118;BME280;59992;47.490;8.736;2023-11-18T02:23:11;97526.75;;;3.99;100.00
72118;BME280;59992;47.490;8.736;2023-11-18T02:25:59;97522.69;;;3.90;100.00
72118;BME280;59992;47.490;8.736;2023-11-18T02:28:48;97514.48;;;3.81;99.96
72118;BME280;59992;47.490;8.736;2023-11-18T02:31:37;97510.36;;;3.72;99.88
72118;BME280;59992;47.490;8.736;2023-11-18T02:34:28;97518.38;;;3.61;99.60
72118;BME280;59992;47.490;8.736;2023-11-18T02:37:19;97519.96;;;3.53;100.00
72118;BME280;59992;47.490;8.736;2023-11-18T02:40:11;97519.31;;;3.45;100.00
72118;BME280;59992;47.490;8.736;2023-11-18T02:43:03;97522.63;;;3.39;100.00
72118;BME280;59992;47.490;8.736;2023-11-18T02:45:53;97520.46;;;3.34;100.00
72118;BME280;59992;47.490;8.736;2023-11-18T02:48:42;97520.92;;;3.29;100.00
72118;BME280;59992;47.490;8.736;2023-11-18T02:51:31;97516.59;;;3.22;100.00
72118;BME280;59992;47.490;8.736;2023-11-18T02:54:21;97521.41;;;3.14;100.00
72118;BME280;59992;47.490;8.736;2023-11-18T02:57:10;97524.60;;;3.08;100.00
72118;BME280;59992;47.490;8.736;2023-11-18T03:00:01;97519.70;;;3.03;100.00
72118;BME280;59992;47.490;8.736;2023-11-18T03:02:51;97515.54;;;2.96;100.00
72118;BME280;59992;47.490;8.736;2023-11-18T03:05:40;97514.41;;;2.85;99.93
72118;BME280;59992;47.490;8.736;2023-11-18T03:08:29;97507.59;;;2.76;100.00
72118;BME280;59992;47.490;8.736;2023-11-18T03:11:17;97504.73;;;2.71;100.00
72118;BME280;59992;47.490;8.736;2023-11-18T03:14:07;97503.76;;;2.66;100.00
72118;BME280;59992;47.490;8.736;2023-11-18T03:16:57;97503.52;;;2.59;100.00
72118;BME280;59992;47.490;8.736;2023-11-18T03:19:45;97507.27;;;2.50;100.00
72118;BME280;59992;47.490;8.736;2023-11-18T03:22:34;97510.85;;;2.48;100.00
72118;BME280;59992;47.490;8.736;2023-11-18T03:25:22;97515.85;;;2.44;100.00
72118;BME280;59992;47.490;8.736;2023-11-18T03:28:10;97519.73;;;2.40;100.00
72118;BME280;59992;47.490;8.736;2023-11-18T03:30:59;97521.73;;;2.38;100.00
72118;BME280;59992;47.490;8.736;2023-11-18T03:33:47;97526.71;;;2.34;100.00
72118;BME280;59992;47.490;8.736;2023-11-18T03:36:35;97515.13;;;2.32;100.00
72118;BME280;59992;47.490;8.736;2023-11-18T03:39:23;97507.38;;;2.25;100.00
72118;BME280;59992;47.490;8.736;2023-11-18T03:42:12;97496.82;;;2.23;100.00
72118;BME280;59992;47.490;8.736;2023-11-18T03:45:01;97495.69;;;2.22;100.00
72118;BME280;59992;47.490;8.736;2023-11-18T03:47:49;97499.75;;;2.17;100.00
72118;BME280;59992;47.490;8.736;2023-11-18T03:50:39;97505.84;;;2.11;100.00
72118;BME280;59992;47.490;8.736;2023-11-18T03:53:27;97511.37;;;2.08;100.00
72118;BME280;59992;47.490;8.736;2023-11-18T03:56:17;97510.72;;;2.06;100.00
72118;BME280;59992;47.490;8.736;2023-11-18T03:59:06;97512.96;;;2.02;100.00
72118;BME280;59992;47.490;8.736;2023-11-18T04:01:54;97513.85;;;2.02;100.00
72118;BME280;59992;47.490;8.736;2023-11-18T04:04:42;97513.23;;;1.97;100.00
72118;BME280;59992;47.490;8.736;2023-11-18T04:07:36;97519.61;;;1.98;100.00
72118;BME280;59992;47.490;8.736;2023-11-18T04:10:24;97517.98;;;1.99;100.00
72118;BME280;59992;47.490;8.736;2023-11-18T04:13:13;97521.59;;;1.98;100.00
72118;BME280;59992;47.490;8.736;2023-11-18T04:16:01;97521.74;;;1.98;100.00
72118;BME280;59992;47.490;8.736;2023-11-18T04:18:51;97517.89;;;1.97;100.00
72118;BME280;59992;47.490;8.736;2023-11-18T04:21:39;97505.48;;;1.95;100.00
72118;BME280;59992;47.490;8.736;2023-11-18T04:24:27;97498.11;;;1.91;100.00
72118;BME280;59992;47.490;8.736;2023-11-18T04:27:16;97496.76;;;1.86;100.00
72118;BME280;59992;47.490;8.736;2023-11-18T04:30:06;97498.33;;;1.79;100.00
72118;BME280;59992;47.490;8.736;2023-11-18T04:32:55;97505.53;;;1.70;100.00
72118;BME280;59992;47.490;8.736;2023-11-18T04:35:46;97506.00;;;1.66;100.00
72118;BME280;59992;47.490;8.736;2023-11-18T04:38:34;97505.38;;;1.65;100.00
72118;BME280;59992;47.490;8.736;2023-11-18T04:41:23;97511.22;;;1.61;100.00
72118;BME280;59992;47.490;8.736;2023-11-18T04:44:11;97511.91;;;1.61;100.00
72118;BME280;59992;47.490;8.736;2023-11-18T04:46:59;97515.57;;;1.56;100.00
72118;BME280;59992;47.490;8.736;2023-11-18T04:49:49;97519.54;;;1.56;100.00
72118;BME280;59992;47.490;8.736;2023-11-18T04:52:37;97524.41;;;1.55;100.00
72118;BME280;59992;47.490;8.736;2023-11-18T04:55:25;97528.38;;;1.54;100.00
72118;BME280;59992;47.490;8.736;2023-11-18T04:58:14;97528.90;;;1.55;100.00
72118;BME280;59992;47.490;8.736;2023-11-18T05:01:04;97533.49;;;1.55;100.00
72118;BME280;59992;47.490;8.736;2023-11-18T05:03:52;97523.48;;;1.50;100.00
72118;BME280;59992;47.490;8.736;2023-11-18T05:06:40;97528.70;;;1.55;100.00
72118;BME280;59992;47.490;8.736;2023-11-18T05:09:28;97523.95;;;1.55;100.00
72118;BME280;59992;47.490;8.736;2023-11-18T05:12:16;97524.55;;;1.52;100.00
72118;BME280;59992;47.490;8.736;2023-11-18T05:15:07;97527.20;;;1.48;100.00
72118;BME280;59992;47.490;8.736;2023-11-18T05:17:56;97522.86;;;1.39;100.00
72118;BME280;59992;47.490;8.736;2023-11-18T05:20:44;97518.26;;;1.40;100.00
72118;BME280;59992;47.490;8.736;2023-11-18T05:23:34;97507.15;;;1.39;100.00
72118;BME280;59992;47.490;8.736;2023-11-18T05:26:23;97503.26;;;1.41;100.00
72118;BME280;59992;47.490;8.736;2023-11-18T05:29:11;97499.17;;;1.41;100.00
72118;BME280;59992;47.490;8.736;2023-11-18T05:32:05;97491.84;;;1.35;100.00
72118;BME280;59992;47.490;8.736;2023-11-18T05:34:53;97504.02;;;1.38;100.00
72118;BME280;59992;47.490;8.736;2023-11-18T05:37:42;97507.83;;;1.33;100.00
72118;BME280;59992;47.490;8.736;2023-11-18T05:40:31;97507.63;;;1.33;100.00
72118;BME280;59992;47.490;8.736;2023-11-18T05:43:19;97508.29;;;1.34;100.00
72118;BME280;59992;47.490;8.736;2023-11-18T05:46:08;97503.96;;;1.32;100.00
72118;BME280;59992;47.490;8.736;2023-11-18T05:49:05;97505.44;;;1.33;100.00
72118;BME280;59992;47.490;8.736;2023-11-18T05:51:55;97502.90;;;1.30;100.00
72118;BME280;59992;47.490;8.736;2023-11-18T05:54:45;97508.14;;;1.24;100.00
72118;BME280;59992;47.490;8.736;2023-11-18T05:57:33;97514.91;;;1.20;100.00
72118;BME280;59992;47.490;8.736;2023-11-18T06:00:23;97508.37;;;1.16;100.00
72118;BME280;59992;47.490;8.736;2023-11-18T06:03:12;97503.16;;;1.16;100.00
72118;BME280;59992;47.490;8.736;2023-11-18T06:06:00;97496.02;;;1.18;100.00
72118;BME280;59992;47.490;8.736;2023-11-18T06:08:48;97492.42;;;1.18;100.00
72118;BME280;59992;47.490;8.736;2023-11-18T06:11:37;97491.13;;;1.17;100.00
72118;BME280;59992;47.490;8.736;2023-11-18T06:14:29;97498.53;;;1.13;100.00
72118;BME280;59992;47.490;8.736;2023-11-18T06:17:17;97499.13;;;1.05;100.00
72118;BME280;59992;47.490;8.736;2023-11-18T06:20:08;97507.36;;;1.08;100.00
72118;BME280;59992;47.490;8.736;2023-11-18T06:22:58;97510.26;;;1.10;100.00
72118;BME280;59992;47.490;8.736;2023-11-18T06:25:46;97505.23;;;1.18;100.00
72118;BME280;59992;47.490;8.736;2023-11-18T06:28:34;97503.70;;;1.23;100.00
72118;BME280;59992;47.490;8.736;2023-11-18T06:31:23;97502.90;;;1.30;100.00
72118;BME280;59992;47.490;8.736;2023-11-18T06:34:11;97504.29;;;1.37;100.00
72118;BME280;59992;47.490;8.736;2023-11-18T06:37:01;97509.27;;;1.40;100.00
72118;BME280;59992;47.490;8.736;2023-11-18T06:39:49;97513.95;;;1.46;100.00
72118;BME280;59992;47.490;8.736;2023-11-18T06:42:37;97513.77;;;1.54;100.00
72118;BME280;59992;47.490;8.736;2023-11-18T06:45:27;97508.63;;;1.60;100.00
72118;BME280;59992;47.490;8.736;2023-11-18T06:48:15;97507.48;;;1.68;100.00
72118;BME280;59992;47.490;8.736;2023-11-18T06:51:07;97524.94;;;1.72;100.00
72118;BME280;59992;47.490;8.736;2023-11-18T06:53:57;97523.70;;;1.76;100.00
72118;BME280;59992;47.490;8.736;2023-11-18T06:56:45;97521.17;;;1.81;100.00
72118;BME280;59992;47.490;8.736;2023-11-18T06:59:33;97525.02;;;1.88;100.00
72118;BME280;59992;47.490;8.736;2023-11-18T07:02:23;97521.48;;;1.96;100.00
72118;BME280;59992;47.490;8.736;2023-11-18T07:05:11;97521.38;;;1.99;100.00
72118;BME280;59992;47.490;8.736;2023-11-18T07:08:00;97520.27;;;2.03;100.00
72118;BME280;59992;47.490;8.736;2023-11-18T07:10:48;97517.90;;;2.05;100.00
72118;BME280;59992;47.490;8.736;2023-11-18T07:13:36;97519.20;;;2.02;100.00
72118;BME280;59992;47.490;8.736;2023-11-18T07:16:26;97524.77;;;2.07;100.00
72118;BME280;59992;47.490;8.736;2023-11-18T07:19:15;97526.23;;;2.09;100.00
72118;BME280;59992;47.490;8.736;2023-11-18T07:22:07;97525.44;;;2.12;100.00
72118;BME280;59992;47.490;8.736;2023-11-18T07:24:55;97529.93;;;2.16;100.00
72118;BME280;59992;47.490;8.736;2023-11-18T07:27:43;97529.91;;;2.21;100.00
72118;BME280;59992;47.490;8.736;2023-11-18T07:30:31;97538.25;;;2.28;100.00
72118;BME280;59992;47.490;8.736;2023-11-18T07:33:20;97541.60;;;2.34;100.00
72118;BME280;59992;47.490;8.736;2023-11-18T07:36:09;97539.20;;;2.42;100.00
72118;BME280;59992;47.490;8.736;2023-11-18T07:38:59;97536.79;;;2.53;100.00
72118;BME280;59992;47.490;8.736;2023-11-18T07:41:48;97541.91;;;2.67;100.00
72118;BME280;59992;47.490;8.736;2023-11-18T07:44:36;97537.23;;;2.76;100.00
72118;BME280;59992;47.490;8.736;2023-11-18T07:47:26;97534.48;;;2.81;100.00
72118;BME280;59992;47.490;8.736;2023-11-18T07:50:15;97545.65;;;2.86;100.00
72118;BME280;59992;47.490;8.736;2023-11-18T07:53:04;97546.81;;;2.95;100.00
72118;BME280;59992;47.490;8.736;2023-11-18T07:55:54;97543.18;;;3.03;100.00
72118;BME280;59992;47.490;8.736;2023-11-18T07:58:43;97535.22;;;3.14;100.00
72118;BME280;59992;47.490;8.736;2023-11-18T08:01:33;97535.23;;;3.25;100.00
72118;BME280;59992;47.490;8.736;2023-11-18T08:04:22;97538.58;;;3.35;100.00
72118;BME280;59992;47.490;8.736;2023-11-18T08:07:10;97539.48;;;3.46;100.00
72118;BME280;59992;47.490;8.736;2023-11-18T08:09:58;97533.89;;;3.57;99.97
72118;BME280;59992;47.490;8.736;2023-11-18T08:12:47;97531.43;;;3.67;99.94
72118;BME280;59992;47.490;8.736;2023-11-18T08:15:37;97525.94;;;3.80;100.00
72118;BME280;59992;47.490;8.736;2023-11-18T08:18:27;97525.14;;;3.94;100.00
72118;BME280;59992;47.490;8.736;2023-11-18T08:21:19;97525.61;;;4.03;99.50
72118;BME280;59992;47.490;8.736;2023-11-18T08:24:08;97528.77;;;4.08;98.20
72118;BME280;59992;47.490;8.736;2023-11-18T08:26:56;97532.47;;;4.14;97.98
72118;BME280;59992;47.490;8.736;2023-11-18T08:29:44;97535.98;;;4.26;98.20
72118;BME280;59992;47.490;8.736;2023-11-18T08:32:35;97543.10;;;4.37;97.15
72118;BME280;59992;47.490;8.736;2023-11-18T08:35:24;97545.17;;;4.45;96.58
72118;BME280;59992;47.490;8.736;2023-11-18T08:38:12;97539.34;;;4.57;97.51
72118;BME280;59992;47.490;8.736;2023-11-18T08:41:00;97539.56;;;4.69;96.35
72118;BME280;59992;47.490;8.736;2023-11-18T08:43:49;97542.09;;;4.82;96.36
72118;BME280;59992;47.490;8.736;2023-11-18T08:46:37;97539.61;;;4.97;95.95
72118;BME280;59992;47.490;8.736;2023-11-18T08:49:26;97536.73;;;5.12;94.67
72118;BME280;59992;47.490;8.736;2023-11-18T08:52:21;97532.99;;;5.26;96.24
72118;BME280;59992;47.490;8.736;2023-11-18T08:55:11;97518.26;;;5.29;93.57
72118;BME280;59992;47.490;8.736;2023-11-18T08:58:05;97523.33;;;5.42;93.15
72118;BME280;59992;47.490;8.736;2023-11-18T09:01:03;97516.11;;;5.53;94.23
72118;BME280;59992;47.490;8.736;2023-11-18T09:03:53;97515.66;;;5.67;93.95
72118;BME280;59992;47.490;8.736;2023-11-18T09:06:41;97516.73;;;5.69;93.40
72118;BME280;59992;47.490;8.736;2023-11-18T09:09:30;97511.92;;;5.80;92.80
72118;BME280;59992;47.490;8.736;2023-11-18T09:12:21;97511.70;;;5.85;92.68
72118;BME280;59992;47.490;8.736;2023-11-18T09:15:10;97502.98;;;5.98;91.88
72118;BME280;59992;47.490;8.736;2023-11-18T09:18:05;97499.85;;;6.11;91.41
72118;BME280;59992;47.490;8.736;2023-11-18T09:20:57;97500.23;;;6.25;91.06
72118;BME280;59992;47.490;8.736;2023-11-18T09:23:48;97496.58;;;6.32;90.97
72118;BME280;59992;47.490;8.736;2023-11-18T09:26:37;97489.78;;;6.42;91.28
72118;BME280;59992;47.490;8.736;2023-11-18T09:29:25;97480.51;;;6.52;90.60
72118;BME280;59992;47.490;8.736;2023-11-18T09:32:14;97480.17;;;6.58;89.01
72118;BME280;59992;47.490;8.736;2023-11-18T09:35:02;97474.23;;;6.62;87.43
72118;BME280;59992;47.490;8.736;2023-11-18T09:37:56;97475.06;;;6.67;88.19
72118;BME280;59992;47.490;8.736;2023-11-18T09:40:45;97470.30;;;6.78;87.62
72118;BME280;59992;47.490;8.736;2023-11-18T09:43:35;97468.95;;;6.88;88.18
72118;BME280;59992;47.490;8.736;2023-11-18T09:46:30;97476.36;;;6.94;86.71
72118;BME280;59992;47.490;8.736;2023-11-18T09:49:25;97479.73;;;6.97;86.66
72118;BME280;59992;47.490;8.736;2023-11-18T09:52:22;97492.75;;;7.10;86.05
72118;BME280;59992;47.490;8.736;2023-11-18T09:55:19;97496.09;;;7.20;84.52
72118;BME280;59992;47.490;8.736;2023-11-18T09:58:17;97497.27;;;7.22;85.74
72118;BME280;59992;47.490;8.736;2023-11-18T10:01:08;97488.37;;;7.34;86.39
72118;BME280;59992;47.490;8.736;2023-11-18T10:04:01;97486.55;;;7.43;86.41
72118;BME280;59992;47.490;8.736;2023-11-18T10:06:54;97487.55;;;7.49;84.31
72118;BME280;59992;47.490;8.736;2023-11-18T10:09:44;97487.82;;;7.60;84.98
72118;BME280;59992;47.490;8.736;2023-11-18T10:12:33;97483.42;;;7.64;83.55
72118;BME280;59992;47.490;8.736;2023-11-18T10:15:25;97484.87;;;7.78;83.47
72118;BME280;59992;47.490;8.736;2023-11-18T10:18:15;97483.81;;;7.79;81.53
72118;BME280;59992;47.490;8.736;2023-11-18T10:21:09;97482.90;;;7.86;81.21
72118;BME280;59992;47.490;8.736;2023-11-18T10:24:02;97476.67;;;7.87;79.97
72118;BME280;59992;47.490;8.736;2023-11-18T10:26:56;97485.98;;;7.86;80.74
72118;BME280;59992;47.490;8.736;2023-11-18T10:29:45;97488.16;;;7.92;79.55
72118;BME280;59992;47.490;8.736;2023-11-18T10:32:34;97481.66;;;7.91;80.15
72118;BME280;59992;47.490;8.736;2023-11-18T10:35:26;97477.98;;;7.93;81.31
72118;BME280;59992;47.490;8.736;2023-11-18T10:38:15;97482.81;;;7.95;80.91
72118;BME280;59992;47.490;8.736;2023-11-18T10:41:05;97482.91;;;8.02;82.29
72118;BME280;59992;47.490;8.736;2023-11-18T10:44:06;97476.14;;;8.17;86.26
72118;BME280;59992;47.490;8.736;2023-11-18T10:46:55;97477.05;;;8.23;82.04
72118;BME280;59992;47.490;8.736;2023-11-18T10:49:46;97467.15;;;8.16;79.94
72118;BME280;59992;47.490;8.736;2023-11-18T10:52:39;97461.84;;;8.11;80.72
72118;BME280;59992;47.490;8.736;2023-11-18T10:55:36;97476.84;;;8.15;79.04
72118;BME280;59992;47.490;8.736;2023-11-18T10:58:24;97470.20;;;8.17;79.25
72118;BME280;59992;47.490;8.736;2023-11-18T11:01:12;97484.19;;;8.30;78.93
72118;BME280;59992;47.490;8.736;2023-11-18T11:04:01;97481.35;;;8.31;79.55
72118;BME280;59992;47.490;8.736;2023-11-18T11:06:51;97484.95;;;8.28;79.51
72118;BME280;59992;47.490;8.736;2023-11-18T11:09:44;97485.77;;;8.32;80.44
72118;BME280;59992;47.490;8.736;2023-11-18T11:12:38;97487.25;;;8.31;80.51
72118;BME280;59992;47.490;8.736;2023-11-18T11:15:42;97491.17;;;8.33;81.48
72118;BME280;59992;47.490;8.736;2023-11-18T11:18:33;97490.52;;;8.36;81.36
72118;BME280;59992;47.490;8.736;2023-11-18T11:21:29;97480.63;;;8.44;80.49
72118;BME280;59992;47.490;8.736;2023-11-18T11:24:26;97477.21;;;8.39;80.08
72118;BME280;59992;47.490;8.736;2023-11-18T11:27:25;97478.05;;;8.40;78.91
72118;BME280;59992;47.490;8.736;2023-11-18T11:30:23;97475.66;;;8.36;80.41
72118;BME280;59992;47.490;8.736;2023-11-18T11:33:28;97480.80;;;8.33;80.43
72118;BME280;59992;47.490;8.736;2023-11-18T11:36:21;97486.00;;;8.32;80.57
72118;BME280;59992;47.490;8.736;2023-11-18T11:39:11;97493.38;;;8.33;81.55
72118;BME280;59992;47.490;8.736;2023-11-18T11:42:02;97495.24;;;8.43;82.61
72118;BME280;59992;47.490;8.736;2023-11-18T11:44:51;97489.17;;;8.40;79.36
72118;BME280;59992;47.490;8.736;2023-11-18T11:47:43;97481.63;;;8.32;78.38
72118;BME280;59992;47.490;8.736;2023-11-18T11:50:35;97476.58;;;8.43;85.15
72118;BME280;59992;47.490;8.736;2023-11-18T11:53:35;97461.95;;;8.41;80.59
72118;BME280;59992;47.490;8.736;2023-11-18T11:56:40;97447.77;;;8.41;80.42
72118;BME280;59992;47.490;8.736;2023-11-18T11:59:55;97446.11;;;8.41;85.38
72118;BME280;59992;47.490;8.736;2023-11-18T12:02:49;97446.84;;;8.39;82.99
72118;BME280;59992;47.490;8.736;2023-11-18T12:05:40;97441.27;;;8.39;84.88
72118;BME280;59992;47.490;8.736;2023-11-18T12:08:43;97438.60;;;8.34;82.90
72118;BME280;59992;47.490;8.736;2023-11-18T12:11:35;97446.85;;;8.39;84.66
72118;BME280;59992;47.490;8.736;2023-11-18T12:14:28;97456.33;;;8.44;84.09
72118;BME280;59992;47.490;8.736;2023-11-18T12:17:28;97447.48;;;8.44;82.51
72118;BME280;59992;47.490;8.736;2023-11-18T12:20:40;97440.77;;;8.48;83.59
72118;BME280;59992;47.490;8.736;2023-11-18T12:23:34;97439.65;;;8.51;82.72
72118;BME280;59992;47.490;8.736;2023-11-18T12:26:39;97436.33;;;8.48;81.29
72118;BME280;59992;47.490;8.736;2023-11-18T12:29:34;97427.39;;;8.50;81.71
72118;BME280;59992;47.490;8.736;2023-11-18T12:35:52;97426.05;;;8.41;82.50
72118;BME280;59992;47.490;8.736;2023-11-18T12:39:14;97429.47;;;8.43;81.84
72118;BME280;59992;47.490;8.736;2023-11-18T12:42:08;97436.55;;;8.36;81.56
72118;BME280;59992;47.490;8.736;2023-11-18T12:45:15;97441.47;;;8.29;82.86
72118;BME280;59992;47.490;8.736;2023-11-18T12:48:10;97436.96;;;8.28;82.21
72118;BME280;59992;47.490;8.736;2023-11-18T12:51:01;97435.67;;;8.26;82.64
72118;BME280;59992;47.490;8.736;2023-11-18T12:53:50;97435.80;;;8.28;86.23
72118;BME280;59992;47.490;8.736;2023-11-18T12:56:41;97430.30;;;8.20;83.95
72118;BME280;59992;47.490;8.736;2023-11-18T12:59:31;97425.84;;;8.13;84.83
72118;BME280;59992;47.490;8.736;2023-11-18T13:02:20;97421.27;;;8.12;84.62
72118;BME280;59992;47.490;8.736;2023-11-18T13:05:09;97415.60;;;8.12;84.19
72118;BME280;59992;47.490;8.736;2023-11-18T13:07:57;97411.20;;;8.09;83.56
72118;BME280;59992;47.490;8.736;2023-11-18T13:10:49;97406.20;;;8.05;84.10
72118;BME280;59992;47.490;8.736;2023-11-18T13:13:38;97400.23;;;8.00;82.72
72118;BME280;59992;47.490;8.736;2023-11-18T13:16:26;97392.80;;;7.93;84.50
72118;BME280;59992;47.490;8.736;2023-11-18T13:19:24;97397.98;;;7.96;85.42
72118;BME280;59992;47.490;8.736;2023-11-18T13:22:14;97395.92;;;7.94;86.71
72118;BME280;59992;47.490;8.736;2023-11-18T13:25:02;97394.59;;;7.92;86.76
72118;BME280;59992;47.490;8.736;2023-11-18T13:27:52;97384.92;;;7.90;85.47
72118;BME280;59992;47.490;8.736;2023-11-18T13:30:43;97388.02;;;7.86;85.34
72118;BME280;59992;47.490;8.736;2023-11-18T13:33:12;97393.84;;;7.84;85.68
72118;BME280;59992;47.490;8.736;2023-11-18T13:35:41;97395.52;;;7.85;85.80
72118;BME280;59992;47.490;8.736;2023-11-18T13:38:10;97391.95;;;7.84;85.75
72118;BME280;59992;47.490;8.736;2023-11-18T13:40:45;97387.62;;;7.83;85.52
72118;BME280;59992;47.490;8.736;2023-11-18T13:43:14;97386.70;;;7.85;87.30
72118;BME280;59992;47.490;8.736;2023-11-18T13:45:41;97385.16;;;7.86;87.87
72118;BME280;59992;47.490;8.736;2023-11-18T13:48:11;97383.80;;;7.86;86.99
72118;BME280;59992;47.490;8.736;2023-11-18T13:50:42;97383.68;;;7.87;86.81
72118;BME280;59992;47.490;8.736;2023-11-18T13:53:11;97388.67;;;7.87;86.86
72118;BME280;59992;47.490;8.736;2023-11-18T13:55:40;97390.70;;;7.91;87.22
72118;BME280;59992;47.490;8.736;2023-11-18T13:58:08;97346.89;;;7.66;88.60
72118;BME280;59992;47.490;8.736;2023-11-18T14:00:37;97383.40;;;7.92;89.16
72118;BME280;59992;47.490;8.736;2023-11-18T14:03:04;97386.75;;;7.90;88.05
72118;BME280;59992;47.490;8.736;2023-11-18T14:05:34;97385.20;;;7.91;87.83
72118;BME280;59992;47.490;8.736;2023-11-18T14:08:03;97373.27;;;7.91;87.97
72118;BME280;59992;47.490;8.736;2023-11-18T14:10:35;97359.60;;;7.88;87.28
72118;BME280;59992;47.490;8.736;2023-11-18T14:13:05;97350.95;;;7.85;86.59
72118;BME280;59992;47.490;8.736;2023-11-18T14:15:33;97336.64;;;7.81;86.18
72118;BME280;59992;47.490;8.736;2023-11-18T14:18:03;97330.43;;;7.78;87.10
72118;BME280;59992;47.490;8.736;2023-11-18T14:20:31;97317.01;;;7.78;87.51
72118;BME280;59992;47.490;8.736;2023-11-18T14:22:58;97303.92;;;7.77;87.15
72118;BME280;59992;47.490;8.736;2023-11-18T14:25:25;97299.68;;;7.75;88.04
72118;BME280;59992;47.490;8.736;2023-11-18T14:27:54;97294.56;;;7.72;87.92
72118;BME280;59992;47.490;8.736;2023-11-18T14:30:21;97291.77;;;7.72;88.68
72118;BME280;59992;47.490;8.736;2023-11-18T14:32:51;97286.69;;;7.70;87.14
72118;BME280;59992;47.490;8.736;2023-11-18T14:35:19;97282.75;;;7.67;86.07
72118;BME280;59992;47.490;8.736;2023-11-18T14:37:47;97274.20;;;7.64;86.77
72118;BME280;59992;47.490;8.736;2023-11-18T14:40:15;97276.87;;;7.63;86.34
72118;BME280;59992;47.490;8.736;2023-11-18T14:42:44;97276.70;;;7.62;86.60
72118;BME280;59992;47.490;8.736;2023-11-18T14:45:14;97269.45;;;7.62;86.86
72118;BME280;59992;47.490;8.736;2023-11-18T14:47:43;97263.67;;;7.63;87.66
72118;BME280;59992;47.490;8.736;2023-11-18T14:50:12;97258.69;;;7.62;87.82
72118;BME280;59992;47.490;8.736;2023-11-18T14:52:45;97254.35;;;7.61;86.66
72118;BME280;59992;47.490;8.736;2023-11-18T14:55:12;97245.90;;;7.59;84.73
72118;BME280;59992;47.490;8.736;2023-11-18T14:57:41;97239.50;;;7.57;84.69
72118;BME280;59992;47.490;8.736;2023-11-18T15:00:13;97233.62;;;7.55;85.41